Time;durP1;ratioP1;P1;durP2;ratioP2;P2;SDS_P1;SDS_P2;PMS_P1;PMS_P2;Temp;Humidity;BMP_temperature;BMP_pressure;BME280_temperature;BME280_humidity;BME280_pressure;Samples;Min_cycle;Max_cycle;Signal;HPM_P1;HPM_P2
2022/07/07 00:01:29;;;;;;;5.75;2.88;;;;;;;;;;5072160;28;20121;-57
2022/07/07 00:03:56;;;;;;;6.90;3.20;;;;;;;;;;5072193;28;20381;-57
2022/07/07 00:06:22;;;;;;;6.78;2.88;;;;;;;;;;5072090;28;20033;-57
2022/07/07 00:08:48;;;;;;;7.40;3.03;;;;;;;;;;5072085;28;20024;-56
2022/07/07 00:11:17;;;;;;;5.75;3.10;;;;;;;;;;5072108;28;20032;-57
2022/07/07 00:13:43;;;;;;;6.40;3.03;;;;;;;;;;5072388;28;20078;-56
2022/07/07 00:16:09;;;;;;;5.20;3.28;;;;;;;;;;5072135;28;20024;-57
2022/07/07 00:18:35;;;;;;;5.40;3.30;;;;;;;;;;5072130;28;20097;-57
2022/07/07 00:21:02;;;;;;;7.03;3.40;;;;;;;;;;5071843;28;20031;-57
2022/07/07 00:23:28;;;;;;;5.13;3.50;;;;;;;;;;5071626;28;20073;-57
2022/07/07 00:25:54;;;;;;;5.78;3.30;;;;;;;;;;5072314;28;20036;-57
2022/07/07 00:28:20;;;;;;;4.35;2.90;;;;;;;;;;5071828;28;20016;-57
2022/07/07 00:30:46;;;;;;;5.05;3.13;;;;;;;;;;5071892;28;20040;-57
2022/07/07 00:33:12;;;;;;;6.22;3.28;;;;;;;;;;5072177;28;20024;-56
2022/07/07 00:35:38;;;;;;;5.15;2.92;;;;;;;;;;5071502;28;20040;-56
2022/07/07 00:38:04;;;;;;;4.88;3.20;;;;;;;;;;5071356;28;20032;-54
2022/07/07 00:40:30;;;;;;;5.70;3.42;;;;;;;;;;5072102;28;20035;-55
2022/07/07 00:42:57;;;;;;;7.07;3.40;;;;;;;;;;5071686;28;20021;-54
2022/07/07 00:45:24;;;;;;;7.57;3.45;;;;;;;;;;5071813;28;20028;-56
2022/07/07 00:47:50;;;;;;;6.40;3.70;;;;;;;;;;5071720;28;20100;-54
2022/07/07 00:50:16;;;;;;;6.35;3.67;;;;;;;;;;5071499;28;20046;-57
2022/07/07 00:52:42;;;;;;;5.05;3.47;;;;;;;;;;5071693;28;20029;-57
2022/07/07 00:55:08;;;;;;;5.90;3.38;;;;;;;;;;5071740;28;20052;-56
2022/07/07 00:57:35;;;;;;;5.88;3.58;;;;;;;;;;5071591;28;20029;-56
2022/07/07 01:00:07;;;;;;;5.28;3.33;;;;;;;;;;5071614;28;20048;-57
2022/07/07 01:02:33;;;;;;;6.78;3.95;;;;;;;;;;5072007;28;20035;-56
2022/07/07 01:05:00;;;;;;;6.97;3.60;;;;;;;;;;5072390;28;20485;-57
2022/07/07 01:07:27;;;;;;;5.53;3.30;;;;;;;;;;5075040;28;20020;-54
2022/07/07 01:09:54;;;;;;;9.50;3.80;;;;;;;;;;5075207;28;20109;-56
2022/07/07 01:12:20;;;;;;;6.95;3.75;;;;;;;;;;5075086;28;20115;-56
2022/07/07 01:14:46;;;;;;;5.47;3.47;;;;;;;;;;5075382;28;20055;-56
2022/07/07 01:17:12;;;;;;;7.10;3.70;;;;;;;;;;5075246;28;20025;-56
2022/07/07 01:19:38;;;;;;;7.35;3.47;;;;;;;;;;5074971;28;20028;-56
2022/07/07 01:22:07;;;;;;;6.03;3.53;;;;;;;;;;5074892;28;20146;-57
2022/07/07 01:24:33;;;;;;;5.97;3.80;;;;;;;;;;5074863;28;20411;-56
2022/07/07 01:27:05;;;;;;;5.53;3.90;;;;;;;;;;5074894;28;20493;-56
2022/07/07 01:29:38;;;;;;;4.30;3.40;;;;;;;;;;5074746;28;20491;-57
2022/07/07 01:32:05;;;;;;;8.20;3.53;;;;;;;;;;5074793;28;20028;-57
2022/07/07 01:34:32;;;;;;;4.93;3.65;;;;;;;;;;5074808;28;20032;-56
2022/07/07 01:36:58;;;;;;;5.30;3.60;;;;;;;;;;5074017;28;20485;-54
2022/07/07 01:39:24;;;;;;;6.82;3.80;;;;;;;;;;5074798;28;20028;-56
2022/07/07 01:41:50;;;;;;;7.93;3.90;;;;;;;;;;5074672;28;20016;-53
2022/07/07 01:44:16;;;;;;;5.47;3.50;;;;;;;;;;5074897;28;20456;-57
2022/07/07 01:46:42;;;;;;;6.65;3.78;;;;;;;;;;5074416;28;20045;-56
2022/07/07 01:49:08;;;;;;;6.38;3.58;;;;;;;;;;5074447;28;20064;-57
2022/07/07 01:51:34;;;;;;;5.97;3.75;;;;;;;;;;5073950;28;20032;-51
2022/07/07 01:54:00;;;;;;;5.80;3.70;;;;;;;;;;5074806;28;20020;-57
2022/07/07 01:56:26;;;;;;;4.05;3.45;;;;;;;;;;5074449;28;20043;-57
2022/07/07 01:58:52;;;;;;;6.53;4.35;;;;;;;;;;5074420;28;20032;-57
2022/07/07 02:01:18;;;;;;;6.22;3.97;;;;;;;;;;5074251;28;20031;-57
2022/07/07 02:03:44;;;;;;;6.47;3.90;;;;;;;;;;5074609;28;20070;-57
2022/07/07 02:06:10;;;;;;;5.55;3.78;;;;;;;;;;5073926;28;20447;-58
2022/07/07 02:08:36;;;;;;;4.43;3.60;;;;;;;;;;5074337;28;20024;-56
2022/07/07 02:11:14;;;;;;;5.72;3.50;;;;;;;;;;5074094;28;20063;-56
2022/07/07 02:13:40;;;;;;;4.97;3.65;;;;;;;;;;5073980;28;20044;-57
2022/07/07 02:16:07;;;;;;;6.18;3.60;;;;;;;;;;5073561;28;20496;-56
2022/07/07 02:18:37;;;;;;;6.05;3.70;;;;;;;;;;5073688;28;20035;-57
2022/07/07 02:21:04;;;;;;;5.43;3.63;;;;;;;;;;5073590;28;20226;-56
2022/07/07 02:23:30;;;;;;;6.10;3.38;;;;;;;;;;5073893;28;20025;-57
2022/07/07 02:25:56;;;;;;;6.43;3.50;;;;;;;;;;5073906;28;20025;-57
2022/07/07 02:28:23;;;;;;;6.22;3.45;;;;;;;;;;5073871;28;20107;-57
2022/07/07 02:30:52;;;;;;;4.63;3.72;;;;;;;;;;5073795;28;20060;-58
2022/07/07 02:33:18;;;;;;;8.60;4.05;;;;;;;;;;5073798;28;20020;-57
2022/07/07 02:35:44;;;;;;;4.65;3.78;;;;;;;;;;5073167;28;20052;-57
2022/07/07 02:38:11;;;;;;;7.55;3.85;;;;;;;;;;5073699;28;20028;-54
2022/07/07 02:40:37;;;;;;;3.85;3.47;;;;;;;;;;5073485;28;20025;-56
2022/07/07 02:43:03;;;;;;;5.20;3.45;;;;;;;;;;5073419;28;20106;-55
2022/07/07 02:45:29;;;;;;;5.30;3.83;;;;;;;;;;5073301;28;20113;-57
2022/07/07 02:47:55;;;;;;;5.82;3.88;;;;;;;;;;5073568;28;20025;-56
2022/07/07 02:50:22;;;;;;;6.82;4.00;;;;;;;;;;5073203;28;20036;-56
2022/07/07 02:52:48;;;;;;;5.20;3.50;;;;;;;;;;5073242;28;20412;-53
2022/07/07 02:55:14;;;;;;;4.78;3.63;;;;;;;;;;5073199;28;20093;-58
2022/07/07 02:57:41;;;;;;;4.95;3.58;;;;;;;;;;5073196;28;20020;-49
2022/07/07 03:00:08;;;;;;;5.03;3.33;;;;;;;;;;5073278;28;20029;-57
2022/07/07 03:02:34;;;;;;;5.55;3.92;;;;;;;;;;5073117;28;20086;-56
2022/07/07 03:05:01;;;;;;;6.78;3.55;;;;;;;;;;5072675;28;20466;-57
2022/07/07 03:07:27;;;;;;;6.72;3.90;;;;;;;;;;5072859;28;20417;-53
2022/07/07 03:09:53;;;;;;;6.85;3.78;;;;;;;;;;5071697;28;20039;-57
2022/07/07 03:12:19;;;;;;;5.50;3.80;;;;;;;;;;5073198;28;20020;-57
2022/07/07 03:14:45;;;;;;;7.47;3.85;;;;;;;;;;5072681;28;20069;-57
2022/07/07 03:17:11;;;;;;;5.53;3.47;;;;;;;;;;5072924;28;20031;-57
2022/07/07 03:19:39;;;;;;;7.57;4.10;;;;;;;;;;5072387;28;20397;-57
2022/07/07 03:22:05;;;;;;;5.47;3.50;;;;;;;;;;5072771;28;20032;-57
2022/07/07 03:24:31;;;;;;;6.78;4.15;;;;;;;;;;5072617;28;20090;-57
2022/07/07 03:27:00;;;;;;;5.82;3.65;;;;;;;;;;5072811;28;20036;-56
2022/07/07 03:29:26;;;;;;;4.38;3.42;;;;;;;;;;5072347;28;20036;-57
2022/07/07 03:31:53;;;;;;;8.73;3.70;;;;;;;;;;5072363;28;20032;-56
2022/07/07 03:34:19;;;;;;;6.43;3.50;;;;;;;;;;5072383;28;20117;-57
2022/07/07 03:36:45;;;;;;;6.57;3.35;;;;;;;;;;5072007;28;20535;-52
2022/07/07 03:39:11;;;;;;;5.75;3.95;;;;;;;;;;5072490;28;20042;-57
2022/07/07 03:41:38;;;;;;;6.22;3.67;;;;;;;;;;5072704;28;20024;-54
2022/07/07 03:44:04;;;;;;;6.60;3.70;;;;;;;;;;5072319;28;20020;-56
2022/07/07 03:46:30;;;;;;;4.90;3.88;;;;;;;;;;5072042;28;20537;-56
2022/07/07 03:48:56;;;;;;;5.43;3.60;;;;;;;;;;5072160;28;20031;-57
2022/07/07 03:51:22;;;;;;;4.93;3.70;;;;;;;;;;5072353;28;20051;-56
2022/07/07 03:53:48;;;;;;;6.13;3.67;;;;;;;;;;5072253;28;20025;-57
2022/07/07 03:56:15;;;;;;;4.15;3.38;;;;;;;;;;5072281;28;20033;-57
2022/07/07 03:58:41;;;;;;;4.20;3.45;;;;;;;;;;5072155;28;20044;-57
2022/07/07 04:01:07;;;;;;;7.28;4.13;;;;;;;;;;5071813;28;20078;-57
2022/07/07 04:03:33;;;;;;;5.70;3.97;;;;;;;;;;5072063;28;20059;-57
2022/07/07 04:06:00;;;;;;;5.53;3.88;;;;;;;;;;5072522;28;20407;-57
2022/07/07 04:08:26;;;;;;;5.95;3.88;;;;;;;;;;5072131;28;20556;-57
2022/07/07 04:10:52;;;;;;;5.50;3.60;;;;;;;;;;5072258;28;20481;-57
2022/07/07 04:13:18;;;;;;;6.32;3.90;;;;;;;;;;5071953;28;20427;-57
2022/07/07 04:15:44;;;;;;;7.97;3.80;;;;;;;;;;5071866;28;20028;-57
2022/07/07 04:18:11;;;;;;;6.82;3.78;;;;;;;;;;5072061;28;20492;-57
2022/07/07 04:20:37;;;;;;;4.97;3.78;;;;;;;;;;5072126;28;20095;-54
2022/07/07 04:23:03;;;;;;;7.18;3.85;;;;;;;;;;5071865;28;20024;-57
2022/07/07 04:25:29;;;;;;;6.60;4.28;;;;;;;;;;5072235;28;20017;-57
2022/07/07 04:27:55;;;;;;;6.72;4.05;;;;;;;;;;5071971;28;20036;-57
2022/07/07 04:30:21;;;;;;;4.63;3.65;;;;;;;;;;5071453;28;20052;-57
2022/07/07 04:32:47;;;;;;;7.30;4.07;;;;;;;;;;5072342;28;20031;-57
2022/07/07 04:35:13;;;;;;;6.03;4.22;;;;;;;;;;5071667;28;20083;-57
2022/07/07 04:37:39;;;;;;;6.60;3.95;;;;;;;;;;5071534;28;20017;-53
2022/07/07 04:40:06;;;;;;;5.60;3.75;;;;;;;;;;5073043;28;20384;-57
2022/07/07 04:42:32;;;;;;;8.70;4.22;;;;;;;;;;5075607;28;20100;-56
2022/07/07 04:44:58;;;;;;;5.85;3.67;;;;;;;;;;5075768;28;20505;-57
2022/07/07 04:47:24;;;;;;;7.32;3.80;;;;;;;;;;5075718;28;20082;-57
2022/07/07 04:49:53;;;;;;;5.63;3.90;;;;;;;;;;5074236;28;20362;-56
2022/07/07 04:52:19;;;;;;;5.95;3.90;;;;;;;;;;5075624;28;20111;-57
2022/07/07 04:54:46;;;;;;;6.65;4.07;;;;;;;;;;5075451;28;20032;-56
2022/07/07 04:57:12;;;;;;;6.95;4.20;;;;;;;;;;5075856;28;20082;-57
2022/07/07 04:59:40;;;;;;;5.32;3.97;;;;;;;;;;5075172;28;20044;-56
2022/07/07 05:02:06;;;;;;;5.72;4.15;;;;;;;;;;5075258;28;20405;-57
2022/07/07 05:04:32;;;;;;;7.00;4.38;;;;;;;;;;5075819;28;20027;-57
2022/07/07 05:06:58;;;;;;;5.82;4.45;;;;;;;;;;5075218;28;20031;-53
2022/07/07 05:09:24;;;;;;;5.80;3.95;;;;;;;;;;5075190;28;20158;-57
2022/07/07 05:11:51;;;;;;;5.10;3.90;;;;;;;;;;5075292;28;20024;-56
2022/07/07 05:14:17;;;;;;;6.32;3.97;;;;;;;;;;5074646;28;20027;-58
2022/07/07 05:16:43;;;;;;;5.78;3.80;;;;;;;;;;5075202;28;20036;-57
2022/07/07 05:19:09;;;;;;;6.15;3.85;;;;;;;;;;5075038;28;20032;-56
2022/07/07 05:21:35;;;;;;;6.10;3.65;;;;;;;;;;5075076;28;20032;-52
2022/07/07 05:24:01;;;;;;;6.00;3.63;;;;;;;;;;5074950;28;20437;-57
2022/07/07 05:26:27;;;;;;;4.00;3.35;;;;;;;;;;5075153;28;20532;-56
2022/07/07 05:28:53;;;;;;;6.90;3.80;;;;;;;;;;5074483;28;20052;-57
2022/07/07 05:31:19;;;;;;;6.82;3.70;;;;;;;;;;5075027;28;20032;-57
2022/07/07 05:33:45;;;;;;;7.45;4.13;;;;;;;;;;5074995;28;20032;-56
2022/07/07 05:36:11;;;;;;;5.40;3.70;;;;;;;;;;5074756;28;20049;-57
2022/07/07 05:38:38;;;;;;;5.65;3.72;;;;;;;;;;5074571;28;20140;-56
2022/07/07 05:41:04;;;;;;;4.82;3.53;;;;;;;;;;5074829;28;20024;-57
2022/07/07 05:43:30;;;;;;;4.40;3.53;;;;;;;;;;5074714;28;20028;-57
2022/07/07 05:45:56;;;;;;;6.18;3.65;;;;;;;;;;5074663;28;20044;-56
2022/07/07 05:48:23;;;;;;;6.00;3.92;;;;;;;;;;5074746;28;20043;-50
2022/07/07 05:50:49;;;;;;;5.35;3.92;;;;;;;;;;5073924;28;20085;-55
2022/07/07 05:53:15;;;;;;;7.55;4.00;;;;;;;;;;5073736;28;20060;-51
2022/07/07 05:55:41;;;;;;;5.05;4.20;;;;;;;;;;5074448;28;20040;-56
2022/07/07 05:58:07;;;;;;;6.75;4.22;;;;;;;;;;5074113;28;20024;-56
2022/07/07 06:00:33;;;;;;;9.80;4.47;;;;;;;;;;5074725;28;20050;-56
2022/07/07 06:02:59;;;;;;;5.18;4.05;;;;;;;;;;5074225;28;20081;-56
2022/07/07 06:05:25;;;;;;;7.35;4.88;;;;;;;;;;5074360;28;20020;-56
2022/07/07 06:07:51;;;;;;;7.18;4.32;;;;;;;;;;5074150;28;20447;-54
2022/07/07 06:10:18;;;;;;;7.20;4.80;;;;;;;;;;5074165;28;20041;-56
2022/07/07 06:12:44;;;;;;;8.18;5.30;;;;;;;;;;5073281;28;20437;-54
2022/07/07 06:15:10;;;;;;;7.32;5.10;;;;;;;;;;5074419;28;20029;-54
2022/07/07 06:17:37;;;;;;;5.68;4.85;;;;;;;;;;5074007;28;20028;-58
2022/07/07 06:20:04;;;;;;;7.05;5.50;;;;;;;;;;5073949;28;20067;-56
2022/07/07 06:22:30;;;;;;;6.88;5.70;;;;;;;;;;5073808;28;20108;-56
2022/07/07 06:24:56;;;;;;;7.43;5.70;;;;;;;;;;5074180;28;20040;-56
2022/07/07 06:27:22;;;;;;;6.88;6.28;;;;;;;;;;5073580;28;20103;-56
2022/07/07 06:29:48;;;;;;;7.60;6.90;;;;;;;;;;5073518;28;20036;-54
2022/07/07 06:32:15;;;;;;;8.65;7.90;;;;;;;;;;5073539;28;20028;-50
2022/07/07 06:34:41;;;;;;;8.68;7.78;;;;;;;;;;5073613;28;20073;-56
2022/07/07 06:37:07;;;;;;;8.90;8.00;;;;;;;;;;5072669;28;20048;-57
2022/07/07 06:39:33;;;;;;;8.18;7.43;;;;;;;;;;5073001;28;20381;-57
2022/07/07 06:42:00;;;;;;;8.27;7.57;;;;;;;;;;5072514;28;20377;-56
2022/07/07 06:44:31;;;;;;;8.45;7.88;;;;;;;;;;5073267;28;20024;-55
2022/07/07 06:47:00;;;;;;;8.98;6.60;;;;;;;;;;5073353;28;20052;-57
2022/07/07 06:49:26;;;;;;;7.80;7.10;;;;;;;;;;5072653;28;20119;-55
2022/07/07 06:51:53;;;;;;;7.97;6.70;;;;;;;;;;5072867;28;20107;-54
2022/07/07 06:54:19;;;;;;;6.85;6.25;;;;;;;;;;5073204;28;20025;-57
2022/07/07 06:56:45;;;;;;;7.93;7.32;;;;;;;;;;5071504;28;20033;-54
2022/07/07 06:59:11;;;;;;;9.75;8.68;;;;;;;;;;5073235;28;20082;-56
2022/07/07 07:01:37;;;;;;;11.23;10.43;;;;;;;;;;5072824;28;20564;-56
2022/07/07 07:04:04;;;;;;;11.90;11.00;;;;;;;;;;5072763;28;20024;-57
2022/07/07 07:06:30;;;;;;;14.05;12.85;;;;;;;;;;5072902;28;20024;-56
2022/07/07 07:08:58;;;;;;;16.58;15.48;;;;;;;;;;5073195;28;20028;-57
2022/07/07 07:11:24;;;;;;;17.67;16.35;;;;;;;;;;5072524;28;20025;-56
2022/07/07 07:13:50;;;;;;;15.82;14.60;;;;;;;;;;5072802;28;20020;-56
2022/07/07 07:16:17;;;;;;;14.77;13.57;;;;;;;;;;5072813;28;20542;-56
2022/07/07 07:18:43;;;;;;;15.43;14.43;;;;;;;;;;5072538;28;20100;-56
2022/07/07 07:21:09;;;;;;;15.15;14.15;;;;;;;;;;5072832;28;20028;-56
2022/07/07 07:23:37;;;;;;;13.80;12.80;;;;;;;;;;5072807;28;20484;-56
2022/07/07 07:26:04;;;;;;;13.10;11.90;;;;;;;;;;5072219;28;20032;-56
2022/07/07 07:28:30;;;;;;;13.32;12.15;;;;;;;;;;5073006;28;20461;-56
2022/07/07 07:30:56;;;;;;;13.35;11.95;;;;;;;;;;5072413;28;20497;-55
2022/07/07 07:33:22;;;;;;;11.98;11.02;;;;;;;;;;5072458;28;20024;-56
2022/07/07 07:35:48;;;;;;;11.68;10.68;;;;;;;;;;5072286;28;20518;-56
2022/07/07 07:38:14;;;;;;;12.15;11.30;;;;;;;;;;5072680;28;20024;-56
2022/07/07 07:40:40;;;;;;;14.55;13.30;;;;;;;;;;5072491;28;20397;-56
2022/07/07 07:43:06;;;;;;;14.50;13.20;;;;;;;;;;5072265;28;20036;-57
2022/07/07 07:45:32;;;;;;;11.73;10.05;;;;;;;;;;5072362;28;20025;-56
2022/07/07 07:48:01;;;;;;;10.90;10.00;;;;;;;;;;5072396;28;20025;-56
2022/07/07 07:50:28;;;;;;;9.57;8.88;;;;;;;;;;5072005;28;20131;-56
2022/07/07 07:52:54;;;;;;;11.13;9.48;;;;;;;;;;5071940;28;20469;-55
2022/07/07 07:55:21;;;;;;;8.63;7.78;;;;;;;;;;5072217;28;20401;-56
2022/07/07 07:57:47;;;;;;;8.98;7.85;;;;;;;;;;5072520;28;20020;-57
2022/07/07 08:00:15;;;;;;;7.95;7.25;;;;;;;;;;5072178;28;20401;-56
2022/07/07 08:02:41;;;;;;;9.68;7.43;;;;;;;;;;5072142;28;20019;-56
2022/07/07 08:05:08;;;;;;;6.90;6.22;;;;;;;;;;5072027;28;20400;-56
2022/07/07 08:07:34;;;;;;;6.55;5.95;;;;;;;;;;5071769;28;20489;-56
2022/07/07 08:10:00;;;;;;;6.78;6.10;;;;;;;;;;5071970;28;20043;-56
2022/07/07 08:12:26;;;;;;;7.22;5.38;;;;;;;;;;5072528;28;20017;-56
2022/07/07 08:14:52;;;;;;;6.18;5.43;;;;;;;;;;5071266;28;20028;-56
2022/07/07 08:17:19;;;;;;;5.15;4.65;;;;;;;;;;5072060;28;20082;-56
2022/07/07 08:19:45;;;;;;;5.63;4.45;;;;;;;;;;5072177;28;20499;-56
2022/07/07 08:22:12;;;;;;;4.72;3.97;;;;;;;;;;5071548;28;20481;-56
2022/07/07 08:24:38;;;;;;;3.95;3.60;;;;;;;;;;5072015;28;20033;-56
2022/07/07 08:27:04;;;;;;;5.45;3.50;;;;;;;;;;5071777;28;20070;-56
2022/07/07 08:29:30;;;;;;;5.82;3.30;;;;;;;;;;5071916;28;20444;-56
2022/07/07 08:31:57;;;;;;;3.25;2.95;;;;;;;;;;5071752;28;20059;-56
2022/07/07 08:34:23;;;;;;;4.28;2.80;;;;;;;;;;5071548;28;20031;-56
2022/07/07 08:36:49;;;;;;;3.10;2.75;;;;;;;;;;5071398;28;20044;-56
2022/07/07 08:39:15;;;;;;;4.20;2.83;;;;;;;;;;5071704;28;20033;-56
2022/07/07 08:41:42;;;;;;;4.82;3.08;;;;;;;;;;5071774;28;20028;-56
2022/07/07 08:44:08;;;;;;;4.43;2.60;;;;;;;;;;5071620;28;20025;-56
2022/07/07 08:46:34;;;;;;;3.20;2.60;;;;;;;;;;5071994;28;20105;-56
2022/07/07 08:49:00;;;;;;;3.22;2.72;;;;;;;;;;5071375;28;20032;-56
2022/07/07 08:51:26;;;;;;;4.03;2.33;;;;;;;;;;5071194;28;20031;-54
2022/07/07 08:53:53;;;;;;;5.68;2.75;;;;;;;;;;5071646;28;20031;-56
2022/07/07 08:56:19;;;;;;;4.28;2.60;;;;;;;;;;5072208;28;20104;-56
2022/07/07 08:58:46;;;;;;;5.25;2.70;;;;;;;;;;5071670;28;20579;-56
2022/07/07 09:01:13;;;;;;;6.40;2.92;;;;;;;;;;5071714;28;20038;-56
2022/07/07 09:03:39;;;;;;;3.83;3.20;;;;;;;;;;5071530;28;20035;-56
2022/07/07 09:06:05;;;;;;;4.78;3.42;;;;;;;;;;5071168;28;20027;-56
2022/07/07 09:08:34;;;;;;;5.47;2.83;;;;;;;;;;5072060;28;20032;-56
2022/07/07 09:11:00;;;;;;;6.28;3.40;;;;;;;;;;5071455;28;20055;-56
2022/07/07 09:13:31;;;;;;;4.03;2.85;;;;;;;;;;5071437;28;20025;-56
2022/07/07 09:15:58;;;;;;;3.75;2.50;;;;;;;;;;5071376;28;20112;-57
2022/07/07 09:18:33;;;;;;;10.18;3.75;;;;;;;;;;5071468;28;20377;-56
2022/07/07 09:21:00;;;;;;;4.20;2.67;;;;;;;;;;5071183;28;20021;-57
2022/07/07 09:23:28;;;;;;;7.47;2.92;;;;;;;;;;5071594;28;20044;-56
2022/07/07 09:25:55;;;;;;;4.30;2.95;;;;;;;;;;5072246;28;20161;-56
2022/07/07 09:28:21;;;;;;;3.22;2.80;;;;;;;;;;5074805;28;20024;-56
2022/07/07 09:30:47;;;;;;;5.45;3.15;;;;;;;;;;5074707;28;20044;-57
2022/07/07 09:33:15;;;;;;;5.75;3.03;;;;;;;;;;5074860;28;20040;-56
2022/07/07 09:38:31;;;;;;;4.13;3.50;;;;;;;;;;5074882;28;20047;-56
2022/07/07 09:41:05;;;;;;;5.22;3.40;;;;;;;;;;5075140;28;20397;-56
2022/07/07 09:43:38;;;;;;;4.15;3.00;;;;;;;;;;5074621;28;20021;-57
2022/07/07 09:46:07;;;;;;;4.13;3.60;;;;;;;;;;5074582;28;20103;-56
2022/07/07 09:48:34;;;;;;;4.18;3.40;;;;;;;;;;5074570;28;20032;-56
2022/07/07 09:51:10;;;;;;;3.88;3.40;;;;;;;;;;5074007;28;20036;-56
2022/07/07 09:53:52;;;;;;;5.13;2.60;;;;;;;;;;5074445;28;20382;-56
2022/07/07 09:56:19;;;;;;;2.72;2.50;;;;;;;;;;5074483;28;20090;-56
2022/07/07 09:58:45;;;;;;;5.28;3.08;;;;;;;;;;5074779;28;20033;-56
2022/07/07 10:01:12;;;;;;;5.75;2.80;;;;;;;;;;5074258;28;20020;-56
2022/07/07 10:03:38;;;;;;;3.80;2.47;;;;;;;;;;5073844;28;20035;-57
2022/07/07 10:06:04;;;;;;;3.45;2.63;;;;;;;;;;5074271;28;20100;-56
2022/07/07 10:08:32;;;;;;;3.10;2.60;;;;;;;;;;5074276;28;20473;-56
2022/07/07 10:10:59;;;;;;;5.07;2.85;;;;;;;;;;5074128;28;20028;-56
2022/07/07 10:13:26;;;;;;;4.68;2.45;;;;;;;;;;5074077;28;20029;-56
2022/07/07 10:15:53;;;;;;;5.22;2.15;;;;;;;;;;5074394;28;20385;-56
2022/07/07 10:18:19;;;;;;;2.40;2.00;;;;;;;;;;5073677;28;20024;-56
2022/07/07 10:20:45;;;;;;;2.88;1.80;;;;;;;;;;5073962;28;20023;-57
2022/07/07 10:23:11;;;;;;;3.10;1.90;;;;;;;;;;5073823;28;20029;-57
2022/07/07 10:25:37;;;;;;;5.72;2.28;;;;;;;;;;5073830;28;20099;-56
2022/07/07 10:28:03;;;;;;;3.63;2.85;;;;;;;;;;5073821;28;20055;-57
2022/07/07 10:30:33;;;;;;;4.72;2.35;;;;;;;;;;5073479;28;20378;-56
2022/07/07 10:32:59;;;;;;;3.35;2.40;;;;;;;;;;5073687;28;20393;-57
2022/07/07 10:35:25;;;;;;;4.20;3.08;;;;;;;;;;5073466;28;20048;-57
2022/07/07 10:37:53;;;;;;;3.90;2.50;;;;;;;;;;5072828;28;20081;-57
2022/07/07 10:40:29;;;;;;;5.78;2.85;;;;;;;;;;5073533;28;20031;-56
2022/07/07 10:43:04;;;;;;;4.32;2.47;;;;;;;;;;5073745;28;20032;-57
2022/07/07 10:45:30;;;;;;;3.70;2.70;;;;;;;;;;5073419;28;20025;-57
2022/07/07 10:47:56;;;;;;;4.03;2.65;;;;;;;;;;5073123;28;20035;-57
2022/07/07 10:50:27;;;;;;;3.00;2.70;;;;;;;;;;5073289;28;20040;-57
2022/07/07 10:52:53;;;;;;;5.22;2.65;;;;;;;;;;5073572;28;20021;-57
2022/07/07 10:55:20;;;;;;;4.32;2.60;;;;;;;;;;5073208;28;20057;-56
2022/07/07 10:57:48;;;;;;;4.43;2.75;;;;;;;;;;5073031;28;20028;-56
2022/07/07 11:00:14;;;;;;;4.40;2.60;;;;;;;;;;5072671;28;20028;-52
2022/07/07 11:02:48;;;;;;;3.38;2.45;;;;;;;;;;5072483;28;20020;-56
2022/07/07 11:05:14;;;;;;;5.00;2.47;;;;;;;;;;5071227;28;20234;-55
2022/07/07 11:08:06;;;;;;;7.93;2.95;;;;;;;;;;5073035;28;20028;-57
2022/07/07 11:10:38;;;;;;;3.75;2.40;;;;;;;;;;5068329;28;20049;-57
2022/07/07 11:13:16;;;;;;;6.03;2.50;;;;;;;;;;5072794;28;20025;-57
2022/07/07 11:15:44;;;;;;;4.90;2.60;;;;;;;;;;5073062;28;20064;-55
2022/07/07 11:18:11;;;;;;;3.72;2.65;;;;;;;;;;5072508;28;20020;-55
2022/07/07 11:20:50;;;;;;;3.95;2.83;;;;;;;;;;5072189;28;20028;-57
2022/07/07 11:23:16;;;;;;;6.43;2.75;;;;;;;;;;5072892;28;20025;-57
2022/07/07 11:25:42;;;;;;;4.00;2.40;;;;;;;;;;5072753;28;20039;-57
2022/07/07 11:28:09;;;;;;;4.65;2.60;;;;;;;;;;5071798;28;20048;-53
2022/07/07 11:30:35;;;;;;;4.20;2.90;;;;;;;;;;5071439;28;20242;-57
2022/07/07 11:33:02;;;;;;;7.13;2.58;;;;;;;;;;5072237;28;20016;-54
2022/07/07 11:35:30;;;;;;;3.65;2.10;;;;;;;;;;5072337;28;20166;-57
2022/07/07 11:37:56;;;;;;;4.38;2.15;;;;;;;;;;5072371;28;20029;-51
2022/07/07 11:40:22;;;;;;;4.55;2.60;;;;;;;;;;5072395;28;20032;-56
2022/07/07 11:42:48;;;;;;;4.07;2.53;;;;;;;;;;5072676;28;20025;-58
2022/07/07 11:45:28;;;;;;;4.22;2.35;;;;;;;;;;5072206;28;20024;-57
2022/07/07 11:47:57;;;;;;;3.88;2.13;;;;;;;;;;5072021;28;20104;-57
2022/07/07 11:50:24;;;;;;;5.47;2.20;;;;;;;;;;5071426;28;20202;-52
2022/07/07 11:52:50;;;;;;;3.17;2.00;;;;;;;;;;5071847;28;20115;-57
2022/07/07 11:55:18;;;;;;;4.75;2.50;;;;;;;;;;5072100;28;20056;-52
2022/07/07 11:57:49;;;;;;;2.55;1.92;;;;;;;;;;5071646;28;20115;-57
2022/07/07 12:00:22;;;;;;;2.47;2.08;;;;;;;;;;5071026;28;20048;-55
2022/07/07 12:02:50;;;;;;;4.35;1.90;;;;;;;;;;5072100;28;20032;-57
2022/07/07 12:05:17;;;;;;;3.10;2.00;;;;;;;;;;5072186;28;20025;-56
2022/07/07 12:07:44;;;;;;;3.47;2.38;;;;;;;;;;5071957;28;20048;-51
2022/07/07 12:10:42;;;;;;;2.50;1.90;;;;;;;;;;5071651;28;20090;-56
2022/07/07 12:13:08;;;;;;;6.07;2.10;;;;;;;;;;5030193;28;20068;-56
2022/07/07 12:15:45;;;;;;;3.75;2.00;;;;;;;;;;5029473;28;20478;-56
2022/07/07 12:18:12;;;;;;;3.10;2.10;;;;;;;;;;5029895;28;20034;-56
2022/07/07 12:20:38;;;;;;;3.00;1.83;;;;;;;;;;5030078;28;20041;-56
2022/07/07 12:23:08;;;;;;;3.15;1.92;;;;;;;;;;5029823;28;20612;-53
2022/07/07 12:25:35;;;;;;;2.95;1.80;;;;;;;;;;5029707;28;20025;-56
2022/07/07 12:28:02;;;;;;;2.65;1.80;;;;;;;;;;5029597;28;20586;-55
2022/07/07 12:30:32;;;;;;;4.03;2.00;;;;;;;;;;5029457;28;20068;-56
2022/07/07 12:32:58;;;;;;;2.35;1.85;;;;;;;;;;5030045;28;20811;-56
2022/07/07 12:35:27;;;;;;;2.90;1.90;;;;;;;;;;5029495;28;20128;-56
2022/07/07 12:37:53;;;;;;;3.75;1.90;;;;;;;;;;5029861;28;20068;-54
2022/07/07 12:40:19;;;;;;;3.33;1.92;;;;;;;;;;5029563;28;20431;-56
2022/07/07 12:42:46;;;;;;;2.47;1.70;;;;;;;;;;5029328;28;20033;-58
2022/07/07 12:45:13;;;;;;;2.83;1.70;;;;;;;;;;5029527;28;20041;-57
2022/07/07 12:47:49;;;;;;;4.03;1.70;;;;;;;;;;5032611;28;20084;-56
2022/07/07 12:50:15;;;;;;;2.65;1.73;;;;;;;;;;5071704;28;20040;-57
2022/07/07 12:52:41;;;;;;;3.90;1.80;;;;;;;;;;5070639;28;20037;-57
2022/07/07 12:55:08;;;;;;;3.03;1.70;;;;;;;;;;5071464;28;20078;-56
2022/07/07 12:57:34;;;;;;;3.80;1.70;;;;;;;;;;5071670;28;20504;-56
2022/07/07 13:00:00;;;;;;;3.90;2.03;;;;;;;;;;5071340;28;20532;-57
2022/07/07 13:02:26;;;;;;;3.40;1.95;;;;;;;;;;5074942;28;20104;-57
2022/07/07 13:04:53;;;;;;;3.63;1.60;;;;;;;;;;5075140;28;20143;-57
2022/07/07 13:07:22;;;;;;;2.58;1.85;;;;;;;;;;5075779;28;20024;-55
2022/07/07 13:09:48;;;;;;;6.32;1.67;;;;;;;;;;5075188;28;20045;-56
2022/07/07 13:12:15;;;;;;;1.88;1.50;;;;;;;;;;5074910;28;20108;-56
2022/07/07 13:14:41;;;;;;;3.92;1.85;;;;;;;;;;5075152;28;20025;-56
2022/07/07 13:17:08;;;;;;;4.43;1.70;;;;;;;;;;5075114;28;20439;-56
2022/07/07 13:19:34;;;;;;;2.70;1.80;;;;;;;;;;5075030;28;20024;-56
2022/07/07 13:22:00;;;;;;;2.42;1.83;;;;;;;;;;5075052;28;20027;-53
2022/07/07 13:24:26;;;;;;;2.53;2.00;;;;;;;;;;5075109;28;20030;-56
2022/07/07 13:26:52;;;;;;;3.17;1.90;;;;;;;;;;5074463;28;20028;-56
2022/07/07 13:29:19;;;;;;;1.80;1.60;;;;;;;;;;5074644;28;20070;-56
2022/07/07 13:31:45;;;;;;;3.45;1.52;;;;;;;;;;5074865;28;20032;-55
2022/07/07 13:34:11;;;;;;;2.20;1.45;;;;;;;;;;5074729;28;20020;-57
2022/07/07 13:36:38;;;;;;;2.58;1.38;;;;;;;;;;5074875;28;20063;-55
2022/07/07 13:39:04;;;;;;;1.67;1.17;;;;;;;;;;5074755;28;20482;-55
2022/07/07 13:41:30;;;;;;;3.08;1.30;;;;;;;;;;5074176;28;20028;-56
2022/07/07 13:43:56;;;;;;;5.35;1.40;;;;;;;;;;5074678;28;20682;-53
2022/07/07 13:46:24;;;;;;;2.83;1.33;;;;;;;;;;5074652;28;20039;-56
2022/07/07 13:48:50;;;;;;;3.42;1.30;;;;;;;;;;5074773;28;20100;-52
2022/07/07 13:51:17;;;;;;;1.88;1.10;;;;;;;;;;5074610;28;20040;-56
2022/07/07 13:53:43;;;;;;;3.45;1.42;;;;;;;;;;5074353;28;20023;-55
2022/07/07 13:56:09;;;;;;;2.47;1.30;;;;;;;;;;5074571;28;20051;-57
2022/07/07 13:58:35;;;;;;;1.55;1.38;;;;;;;;;;5074648;28;20393;-56
2022/07/07 14:01:01;;;;;;;2.00;1.40;;;;;;;;;;5074405;28;20492;-57
2022/07/07 14:03:27;;;;;;;3.67;1.30;;;;;;;;;;5074315;28;20028;-56
2022/07/07 14:05:53;;;;;;;1.63;1.38;;;;;;;;;;5074449;28;20123;-56
2022/07/07 14:08:20;;;;;;;3.85;1.30;;;;;;;;;;5074180;28;20021;-56
2022/07/07 14:10:46;;;;;;;3.20;1.20;;;;;;;;;;5073706;28;20094;-55
2022/07/07 14:13:12;;;;;;;3.80;1.30;;;;;;;;;;5072768;28;20020;-56
2022/07/07 14:15:38;;;;;;;2.28;1.33;;;;;;;;;;5073492;28;20028;-56
2022/07/07 14:18:04;;;;;;;2.13;1.08;;;;;;;;;;5073852;28;20024;-54
2022/07/07 14:20:30;;;;;;;1.75;1.20;;;;;;;;;;5073890;28;20047;-56
2022/07/07 14:22:56;;;;;;;2.53;1.17;;;;;;;;;;5074157;28;20021;-55
2022/07/07 14:25:22;;;;;;;4.18;1.20;;;;;;;;;;5073106;28;20043;-56
2022/07/07 14:27:48;;;;;;;2.15;1.10;;;;;;;;;;5074280;28;20477;-56
2022/07/07 14:30:14;;;;;;;5.22;1.30;;;;;;;;;;5073738;28;20446;-57
2022/07/07 14:32:40;;;;;;;2.22;1.30;;;;;;;;;;5073822;28;20022;-56
2022/07/07 14:35:07;;;;;;;2.83;1.13;;;;;;;;;;5073526;28;20082;-55
2022/07/07 14:37:33;;;;;;;1.55;1.00;;;;;;;;;;5073655;28;20452;-56
2022/07/07 14:39:59;;;;;;;2.08;1.10;;;;;;;;;;5073303;28;20017;-57
2022/07/07 14:42:25;;;;;;;1.60;1.10;;;;;;;;;;5073741;28;20104;-57